Neilburg, Canada
Current Conditions -  °F | °C
As of 3:11 AM on Wednesday 28 Jan 2015 (Local Time) from CYLL Reporting Station
Light Snow Light Snow  
Wind Chill: -11°   Ceiling: 1200
Heat Index: -6°   Visibility: 1.2mi
Dew Point: -7°   Wind: 7mph
Humidity: 93%   Direction: 90°E
Pressure: 29.9"   Gusts: NA
Location:  52.83°N, 109.63°W
Report Text: CYLL 280911Z AUTO 09006KT 1 1/4SM -SN BKN012 OVC070 M06/M07 A2990 RMK PRESFR SLP160
Loading
Personal Weather Stations






























Interactive Weather Map New forecast layout! Learn more

10-Day Weather Forecast

Advertisements
Track Severe Weather on mobile